sensor_id;sensor_type;location;lat;lon;timestamp;temperature;humidity
8527;DHT22;4301;48.362;8.478;2023-04-25T00:01:02;5.30;99.90
8527;DHT22;4301;48.362;8.478;2023-04-25T00:03:30;5.30;99.90
8527;DHT22;4301;48.362;8.478;2023-04-25T00:05:57;5.30;99.90
8527;DHT22;4301;48.362;8.478;2023-04-25T00:08:27;5.20;99.90
8527;DHT22;4301;48.362;8.478;2023-04-25T00:10:54;5.20;99.90
8527;DHT22;4301;48.362;8.478;2023-04-25T00:13:21;5.30;99.90
8527;DHT22;4301;48.362;8.478;2023-04-25T00:15:48;5.30;99.90
8527;DHT22;4301;48.362;8.478;2023-04-25T00:18:15;5.30;99.90
8527;DHT22;4301;48.362;8.478;2023-04-25T00:20:44;5.30;99.90
8527;DHT22;4301;48.362;8.478;2023-04-25T00:23:12;5.30;99.90
8527;DHT22;4301;48.362;8.478;2023-04-25T00:25:43;5.40;99.90
8527;DHT22;4301;48.362;8.478;2023-04-25T00:28:10;5.40;99.90
8527;DHT22;4301;48.362;8.478;2023-04-25T00:30:37;5.30;99.90
8527;DHT22;4301;48.362;8.478;2023-04-25T00:33:04;5.30;99.90
8527;DHT22;4301;48.362;8.478;2023-04-25T00:35:31;5.40;99.90
8527;DHT22;4301;48.362;8.478;2023-04-25T00:37:59;5.40;99.90
8527;DHT22;4301;48.362;8.478;2023-04-25T00:40:27;5.40;99.90
8527;DHT22;4301;48.362;8.478;2023-04-25T00:42:54;5.30;99.90
8527;DHT22;4301;48.362;8.478;2023-04-25T00:45:27;5.30;99.90
8527;DHT22;4301;48.362;8.478;2023-04-25T00:47:55;5.40;99.90
8527;DHT22;4301;48.362;8.478;2023-04-25T00:50:22;5.40;99.90
8527;DHT22;4301;48.362;8.478;2023-04-25T00:52:50;5.50;99.90
8527;DHT22;4301;48.362;8.478;2023-04-25T00:55:18;5.50;99.90
8527;DHT22;4301;48.362;8.478;2023-04-25T00:57:46;5.50;99.90
8527;DHT22;4301;48.362;8.478;2023-04-25T01:00:14;5.50;99.90
8527;DHT22;4301;48.362;8.478;2023-04-25T01:02:41;5.50;99.90
8527;DHT22;4301;48.362;8.478;2023-04-25T01:05:08;5.50;99.90
8527;DHT22;4301;48.362;8.478;2023-04-25T01:07:35;5.50;99.90
8527;DHT22;4301;48.362;8.478;2023-04-25T01:10:03;5.50;99.90
8527;DHT22;4301;48.362;8.478;2023-04-25T01:12:33;5.50;99.90
8527;DHT22;4301;48.362;8.478;2023-04-25T01:15:00;5.40;99.90
8527;DHT22;4301;48.362;8.478;2023-04-25T01:17:27;5.50;99.90
8527;DHT22;4301;48.362;8.478;2023-04-25T01:19:54;5.40;99.90
8527;DHT22;4301;48.362;8.478;2023-04-25T01:22:23;5.40;99.90
8527;DHT22;4301;48.362;8.478;2023-04-25T01:24:50;5.40;99.90
8527;DHT22;4301;48.362;8.478;2023-04-25T01:27:17;5.40;99.90
8527;DHT22;4301;48.362;8.478;2023-04-25T01:29:46;5.30;99.90
8527;DHT22;4301;48.362;8.478;2023-04-25T01:32:14;5.30;99.90
8527;DHT22;4301;48.362;8.478;2023-04-25T01:34:41;5.20;99.90
8527;DHT22;4301;48.362;8.478;2023-04-25T01:37:08;5.10;99.90
8527;DHT22;4301;48.362;8.478;2023-04-25T01:39:36;5.10;99.90
8527;DHT22;4301;48.362;8.478;2023-04-25T01:42:03;5.00;99.90
8527;DHT22;4301;48.362;8.478;2023-04-25T01:44:30;5.00;99.90
8527;DHT22;4301;48.362;8.478;2023-04-25T01:46:57;4.90;99.90
8527;DHT22;4301;48.362;8.478;2023-04-25T01:49:24;4.90;99.90
8527;DHT22;4301;48.362;8.478;2023-04-25T01:51:52;4.90;99.90
8527;DHT22;4301;48.362;8.478;2023-04-25T01:54:19;4.90;99.90
8527;DHT22;4301;48.362;8.478;2023-04-25T01:56:51;4.90;99.90
8527;DHT22;4301;48.362;8.478;2023-04-25T01:59:19;4.80;99.90
8527;DHT22;4301;48.362;8.478;2023-04-25T02:01:47;4.80;99.90
8527;DHT22;4301;48.362;8.478;2023-04-25T02:04:14;4.90;99.90
8527;DHT22;4301;48.362;8.478;2023-04-25T02:06:41;4.90;99.90
8527;DHT22;4301;48.362;8.478;2023-04-25T02:09:08;4.90;99.90
8527;DHT22;4301;48.362;8.478;2023-04-25T02:11:35;4.90;99.90
8527;DHT22;4301;48.362;8.478;2023-04-25T02:14:03;4.90;99.90
8527;DHT22;4301;48.362;8.478;2023-04-25T02:16:30;4.80;99.90
8527;DHT22;4301;48.362;8.478;2023-04-25T02:18:57;4.80;99.90
8527;DHT22;4301;48.362;8.478;2023-04-25T02:21:24;4.70;99.90
8527;DHT22;4301;48.362;8.478;2023-04-25T02:23:52;4.80;99.90
8527;DHT22;4301;48.362;8.478;2023-04-25T02:26:19;4.70;99.90
8527;DHT22;4301;48.362;8.478;2023-04-25T02:28:46;4.70;99.90
8527;DHT22;4301;48.362;8.478;2023-04-25T02:31:14;4.70;99.90
8527;DHT22;4301;48.362;8.478;2023-04-25T02:33:41;4.80;99.90
8527;DHT22;4301;48.362;8.478;2023-04-25T02:36:08;4.80;99.90
8527;DHT22;4301;48.362;8.478;2023-04-25T02:38:35;4.80;99.90
8527;DHT22;4301;48.362;8.478;2023-04-25T02:41:02;4.80;99.90
8527;DHT22;4301;48.362;8.478;2023-04-25T02:43:29;4.70;99.90
8527;DHT22;4301;48.362;8.478;2023-04-25T02:45:56;4.70;99.90
8527;DHT22;4301;48.362;8.478;2023-04-25T02:48:24;4.60;99.90
8527;DHT22;4301;48.362;8.478;2023-04-25T02:50:51;4.60;99.90
8527;DHT22;4301;48.362;8.478;2023-04-25T02:53:18;4.50;99.90
8527;DHT22;4301;48.362;8.478;2023-04-25T02:55:45;4.30;99.90
8527;DHT22;4301;48.362;8.478;2023-04-25T02:58:12;4.20;99.90
8527;DHT22;4301;48.362;8.478;2023-04-25T03:00:41;4.10;99.90
8527;DHT22;4301;48.362;8.478;2023-04-25T03:03:07;4.10;99.90
8527;DHT22;4301;48.362;8.478;2023-04-25T03:05:36;4.10;99.90
8527;DHT22;4301;48.362;8.478;2023-04-25T03:08:03;4.00;99.90
8527;DHT22;4301;48.362;8.478;2023-04-25T03:10:30;3.90;99.90
8527;DHT22;4301;48.362;8.478;2023-04-25T03:12:57;3.80;99.90
8527;DHT22;4301;48.362;8.478;2023-04-25T03:15:24;3.80;99.90
8527;DHT22;4301;48.362;8.478;2023-04-25T03:17:51;3.80;99.90
8527;DHT22;4301;48.362;8.478;2023-04-25T03:20:18;3.80;99.90
8527;DHT22;4301;48.362;8.478;2023-04-25T03:22:46;3.70;99.90
8527;DHT22;4301;48.362;8.478;2023-04-25T03:25:13;3.70;99.90
8527;DHT22;4301;48.362;8.478;2023-04-25T03:27:40;3.80;99.90
8527;DHT22;4301;48.362;8.478;2023-04-25T03:30:07;3.90;99.90
8527;DHT22;4301;48.362;8.478;2023-04-25T03:32:34;3.90;99.90
8527;DHT22;4301;48.362;8.478;2023-04-25T03:35:01;4.00;99.90
8527;DHT22;4301;48.362;8.478;2023-04-25T03:37:28;4.00;99.90
8527;DHT22;4301;48.362;8.478;2023-04-25T03:39:57;3.90;99.90
8527;DHT22;4301;48.362;8.478;2023-04-25T03:42:24;3.80;99.90
8527;DHT22;4301;48.362;8.478;2023-04-25T03:44:51;3.80;99.90
8527;DHT22;4301;48.362;8.478;2023-04-25T03:47:18;3.80;99.90
8527;DHT22;4301;48.362;8.478;2023-04-25T03:49:45;3.80;99.90
8527;DHT22;4301;48.362;8.478;2023-04-25T03:52:12;3.80;99.90
8527;DHT22;4301;48.362;8.478;2023-04-25T03:54:39;3.70;99.90
8527;DHT22;4301;48.362;8.478;2023-04-25T03:57:07;3.80;99.90
8527;DHT22;4301;48.362;8.478;2023-04-25T03:59:34;3.80;99.90
8527;DHT22;4301;48.362;8.478;2023-04-25T04:02:01;3.90;99.90
8527;DHT22;4301;48.362;8.478;2023-04-25T04:04:28;4.00;99.90
8527;DHT22;4301;48.362;8.478;2023-04-25T04:06:55;4.10;99.90
8527;DHT22;4301;48.362;8.478;2023-04-25T04:09:22;4.20;99.90
8527;DHT22;4301;48.362;8.478;2023-04-25T04:11:49;4.40;99.90
8527;DHT22;4301;48.362;8.478;2023-04-25T04:14:17;4.50;99.90
8527;DHT22;4301;48.362;8.478;2023-04-25T04:16:44;4.50;99.90
8527;DHT22;4301;48.362;8.478;2023-04-25T04:19:11;4.50;99.90
8527;DHT22;4301;48.362;8.478;2023-04-25T04:21:38;4.60;99.90
8527;DHT22;4301;48.362;8.478;2023-04-25T04:24:05;4.50;99.90
8527;DHT22;4301;48.362;8.478;2023-04-25T04:26:32;4.50;99.90
8527;DHT22;4301;48.362;8.478;2023-04-25T04:29:00;4.50;99.90
8527;DHT22;4301;48.362;8.478;2023-04-25T04:31:30;4.50;99.90
8527;DHT22;4301;48.362;8.478;2023-04-25T04:33:58;4.50;99.90
8527;DHT22;4301;48.362;8.478;2023-04-25T04:36:25;4.50;99.90
8527;DHT22;4301;48.362;8.478;2023-04-25T04:38:52;4.50;99.90
8527;DHT22;4301;48.362;8.478;2023-04-25T04:41:19;4.50;99.90
8527;DHT22;4301;48.362;8.478;2023-04-25T04:43:46;4.50;99.90
8527;DHT22;4301;48.362;8.478;2023-04-25T04:46:13;4.40;99.90
8527;DHT22;4301;48.362;8.478;2023-04-25T04:48:41;4.40;99.90
8527;DHT22;4301;48.362;8.478;2023-04-25T04:51:10;4.40;99.90
8527;DHT22;4301;48.362;8.478;2023-04-25T04:53:36;4.30;99.90
8527;DHT22;4301;48.362;8.478;2023-04-25T04:56:04;4.30;99.90
8527;DHT22;4301;48.362;8.478;2023-04-25T04:58:31;4.30;99.90
8527;DHT22;4301;48.362;8.478;2023-04-25T05:00:58;4.30;99.90
8527;DHT22;4301;48.362;8.478;2023-04-25T05:03:25;4.20;99.90
8527;DHT22;4301;48.362;8.478;2023-04-25T05:05:54;4.20;99.90
8527;DHT22;4301;48.362;8.478;2023-04-25T05:08:21;4.30;99.90
8527;DHT22;4301;48.362;8.478;2023-04-25T05:10:48;4.30;99.90
8527;DHT22;4301;48.362;8.478;2023-04-25T05:13:15;4.30;99.90
8527;DHT22;4301;48.362;8.478;2023-04-25T05:15:41;4.40;99.90
8527;DHT22;4301;48.362;8.478;2023-04-25T05:18:08;4.40;99.90
8527;DHT22;4301;48.362;8.478;2023-04-25T05:20:35;4.50;99.90
8527;DHT22;4301;48.362;8.478;2023-04-25T05:23:04;4.50;99.90
8527;DHT22;4301;48.362;8.478;2023-04-25T05:25:31;4.60;99.90
8527;DHT22;4301;48.362;8.478;2023-04-25T05:27:58;4.60;99.90
8527;DHT22;4301;48.362;8.478;2023-04-25T05:30:25;4.70;99.90
8527;DHT22;4301;48.362;8.478;2023-04-25T05:32:52;4.70;99.90
8527;DHT22;4301;48.362;8.478;2023-04-25T05:35:19;4.70;99.90
8527;DHT22;4301;48.362;8.478;2023-04-25T05:37:46;4.70;99.90
8527;DHT22;4301;48.362;8.478;2023-04-25T05:40:14;4.70;99.90
8527;DHT22;4301;48.362;8.478;2023-04-25T05:42:41;4.70;99.90
8527;DHT22;4301;48.362;8.478;2023-04-25T05:45:09;4.70;99.90
8527;DHT22;4301;48.362;8.478;2023-04-25T05:47:36;4.70;99.90
8527;DHT22;4301;48.362;8.478;2023-04-25T05:50:03;4.80;99.90
8527;DHT22;4301;48.362;8.478;2023-04-25T05:52:30;4.90;99.90
8527;DHT22;4301;48.362;8.478;2023-04-25T05:54:57;4.90;99.90
8527;DHT22;4301;48.362;8.478;2023-04-25T05:57:26;5.00;99.90
8527;DHT22;4301;48.362;8.478;2023-04-25T05:59:54;5.00;99.90
8527;DHT22;4301;48.362;8.478;2023-04-25T06:02:21;5.10;99.90
8527;DHT22;4301;48.362;8.478;2023-04-25T06:04:49;5.20;99.90
8527;DHT22;4301;48.362;8.478;2023-04-25T06:07:16;5.10;99.90
8527;DHT22;4301;48.362;8.478;2023-04-25T06:09:43;5.20;99.90
8527;DHT22;4301;48.362;8.478;2023-04-25T06:12:10;5.20;99.90
8527;DHT22;4301;48.362;8.478;2023-04-25T06:14:38;5.20;99.90
8527;DHT22;4301;48.362;8.478;2023-04-25T06:17:05;5.30;99.90
8527;DHT22;4301;48.362;8.478;2023-04-25T06:19:34;5.40;99.90
8527;DHT22;4301;48.362;8.478;2023-04-25T06:22:01;5.40;99.90
8527;DHT22;4301;48.362;8.478;2023-04-25T06:24:29;5.50;99.90
8527;DHT22;4301;48.362;8.478;2023-04-25T06:26:56;5.50;99.90
8527;DHT22;4301;48.362;8.478;2023-04-25T06:29:22;5.50;99.90
8527;DHT22;4301;48.362;8.478;2023-04-25T06:31:51;5.50;99.90
8527;DHT22;4301;48.362;8.478;2023-04-25T06:34:18;5.50;99.90
8527;DHT22;4301;48.362;8.478;2023-04-25T06:36:45;5.60;99.90
8527;DHT22;4301;48.362;8.478;2023-04-25T06:39:12;5.60;99.90
8527;DHT22;4301;48.362;8.478;2023-04-25T06:41:39;5.60;99.90
8527;DHT22;4301;48.362;8.478;2023-04-25T06:44:06;5.50;99.90
8527;DHT22;4301;48.362;8.478;2023-04-25T06:46:33;5.60;99.90
8527;DHT22;4301;48.362;8.478;2023-04-25T06:49:01;5.60;99.90
8527;DHT22;4301;48.362;8.478;2023-04-25T06:51:28;5.50;99.90
8527;DHT22;4301;48.362;8.478;2023-04-25T06:53:56;5.40;99.90
8527;DHT22;4301;48.362;8.478;2023-04-25T06:56:23;5.40;99.90
8527;DHT22;4301;48.362;8.478;2023-04-25T06:58:50;5.40;99.90
8527;DHT22;4301;48.362;8.478;2023-04-25T07:01:17;5.30;99.90
8527;DHT22;4301;48.362;8.478;2023-04-25T07:03:44;5.30;99.90
8527;DHT22;4301;48.362;8.478;2023-04-25T07:06:12;5.50;99.90
8527;DHT22;4301;48.362;8.478;2023-04-25T07:08:39;5.50;99.90
8527;DHT22;4301;48.362;8.478;2023-04-25T07:11:06;5.60;99.90
8527;DHT22;4301;48.362;8.478;2023-04-25T07:13:33;5.60;99.90
8527;DHT22;4301;48.362;8.478;2023-04-25T07:15:59;5.50;99.90
8527;DHT22;4301;48.362;8.478;2023-04-25T07:18:26;5.50;99.90
8527;DHT22;4301;48.362;8.478;2023-04-25T07:20:53;5.50;99.90
8527;DHT22;4301;48.362;8.478;2023-04-25T07:23:22;5.50;99.90
8527;DHT22;4301;48.362;8.478;2023-04-25T07:25:49;5.40;99.90
8527;DHT22;4301;48.362;8.478;2023-04-25T07:28:15;5.30;99.90
8527;DHT22;4301;48.362;8.478;2023-04-25T07:30:43;5.20;99.90
8527;DHT22;4301;48.362;8.478;2023-04-25T07:33:10;5.00;99.90
8527;DHT22;4301;48.362;8.478;2023-04-25T07:35:37;4.90;99.90
8527;DHT22;4301;48.362;8.478;2023-04-25T07:38:04;4.80;99.90
8527;DHT22;4301;48.362;8.478;2023-04-25T07:40:33;4.70;99.90
8527;DHT22;4301;48.362;8.478;2023-04-25T07:43:00;4.50;99.90
8527;DHT22;4301;48.362;8.478;2023-04-25T07:45:27;4.40;99.90
8527;DHT22;4301;48.362;8.478;2023-04-25T07:47:54;4.30;99.90
8527;DHT22;4301;48.362;8.478;2023-04-25T07:50:21;4.30;99.90
8527;DHT22;4301;48.362;8.478;2023-04-25T07:52:48;4.20;99.90
8527;DHT22;4301;48.362;8.478;2023-04-25T07:55:15;4.20;99.90
8527;DHT22;4301;48.362;8.478;2023-04-25T07:57:44;4.20;99.90
8527;DHT22;4301;48.362;8.478;2023-04-25T08:00:12;4.20;99.90
8527;DHT22;4301;48.362;8.478;2023-04-25T08:02:40;4.10;99.90
8527;DHT22;4301;48.362;8.478;2023-04-25T08:05:07;4.10;99.90
8527;DHT22;4301;48.362;8.478;2023-04-25T08:07:37;4.00;99.90
8527;DHT22;4301;48.362;8.478;2023-04-25T08:10:05;3.80;99.90
8527;DHT22;4301;48.362;8.478;2023-04-25T08:12:32;3.70;99.90
8527;DHT22;4301;48.362;8.478;2023-04-25T08:15:01;3.70;99.90
8527;DHT22;4301;48.362;8.478;2023-04-25T08:17:28;3.80;99.90
8527;DHT22;4301;48.362;8.478;2023-04-25T08:19:55;3.80;99.90
8527;DHT22;4301;48.362;8.478;2023-04-25T08:22:22;3.70;99.90
8527;DHT22;4301;48.362;8.478;2023-04-25T08:24:49;3.60;99.90
8527;DHT22;4301;48.362;8.478;2023-04-25T08:27:17;3.40;99.90
8527;DHT22;4301;48.362;8.478;2023-04-25T08:29:44;3.30;99.90
8527;DHT22;4301;48.362;8.478;2023-04-25T08:32:12;3.30;99.90
8527;DHT22;4301;48.362;8.478;2023-04-25T08:34:39;3.20;99.90
8527;DHT22;4301;48.362;8.478;2023-04-25T08:37:08;3.10;99.90
8527;DHT22;4301;48.362;8.478;2023-04-25T08:39:35;3.10;99.90
8527;DHT22;4301;48.362;8.478;2023-04-25T08:42:03;3.00;99.90
8527;DHT22;4301;48.362;8.478;2023-04-25T08:44:33;3.00;99.90
8527;DHT22;4301;48.362;8.478;2023-04-25T08:47:02;3.10;99.90
8527;DHT22;4301;48.362;8.478;2023-04-25T08:49:32;3.10;99.90
8527;DHT22;4301;48.362;8.478;2023-04-25T08:52:01;3.10;99.90
8527;DHT22;4301;48.362;8.478;2023-04-25T08:54:31;3.00;99.90
8527;DHT22;4301;48.362;8.478;2023-04-25T08:57:01;3.10;99.90
8527;DHT22;4301;48.362;8.478;2023-04-25T08:59:30;3.10;99.90
8527;DHT22;4301;48.362;8.478;2023-04-25T09:01:57;3.10;99.90
8527;DHT22;4301;48.362;8.478;2023-04-25T09:04:24;3.30;99.90
8527;DHT22;4301;48.362;8.478;2023-04-25T09:06:52;3.50;99.90
8527;DHT22;4301;48.362;8.478;2023-04-25T09:09:19;3.70;99.90
8527;DHT22;4301;48.362;8.478;2023-04-25T09:11:47;3.80;99.90
8527;DHT22;4301;48.362;8.478;2023-04-25T09:14:15;3.90;99.90
8527;DHT22;4301;48.362;8.478;2023-04-25T09:16:58;3.90;97.20
8527;DHT22;4301;48.362;8.478;2023-04-25T09:19:27;4.00;99.90
8527;DHT22;4301;48.362;8.478;2023-04-25T09:21:56;4.20;99.90
8527;DHT22;4301;48.362;8.478;2023-04-25T09:24:31;4.40;99.90
8527;DHT22;4301;48.362;8.478;2023-04-25T09:26:58;4.60;91.50
8527;DHT22;4301;48.362;8.478;2023-04-25T09:29:30;4.80;99.90
8527;DHT22;4301;48.362;8.478;2023-04-25T09:32:16;5.20;99.90
8527;DHT22;4301;48.362;8.478;2023-04-25T09:34:44;5.40;99.90
8527;DHT22;4301;48.362;8.478;2023-04-25T09:37:17;5.60;90.40
8527;DHT22;4301;48.362;8.478;2023-04-25T09:39:46;5.80;98.40
8527;DHT22;4301;48.362;8.478;2023-04-25T09:42:13;6.20;59.50
8527;DHT22;4301;48.362;8.478;2023-04-25T09:44:42;6.50;62.10
8527;DHT22;4301;48.362;8.478;2023-04-25T09:47:10;6.70;22.80
8527;DHT22;4301;48.362;8.478;2023-04-25T09:49:40;7.00;1.00
8527;DHT22;4301;48.362;8.478;2023-04-25T09:52:08;7.40;1.00
8527;DHT22;4301;48.362;8.478;2023-04-25T09:54:36;7.50;1.00
8527;DHT22;4301;48.362;8.478;2023-04-25T09:57:11;7.00;1.00
8527;DHT22;4301;48.362;8.478;2023-04-25T09:59:42;6.70;1.00
8527;DHT22;4301;48.362;8.478;2023-04-25T10:02:11;6.60;7.00
8527;DHT22;4301;48.362;8.478;2023-04-25T10:04:38;6.60;34.60
8527;DHT22;4301;48.362;8.478;2023-04-25T10:07:06;6.80;47.00
8527;DHT22;4301;48.362;8.478;2023-04-25T10:09:36;6.60;11.00
8527;DHT22;4301;48.362;8.478;2023-04-25T10:12:05;6.80;63.00
8527;DHT22;4301;48.362;8.478;2023-04-25T10:14:33;6.70;1.00
8527;DHT22;4301;48.362;8.478;2023-04-25T10:17:01;6.60;1.00
8527;DHT22;4301;48.362;8.478;2023-04-25T10:19:28;6.80;30.90
8527;DHT22;4301;48.362;8.478;2023-04-25T10:21:58;6.90;45.40
8527;DHT22;4301;48.362;8.478;2023-04-25T10:24:29;7.10;1.00
8527;DHT22;4301;48.362;8.478;2023-04-25T10:26:57;7.40;30.70
8527;DHT22;4301;48.362;8.478;2023-04-25T10:29:25;7.60;1.00
8527;DHT22;4301;48.362;8.478;2023-04-25T10:31:52;7.60;1.00
8527;DHT22;4301;48.362;8.478;2023-04-25T10:34:24;7.70;1.00
8527;DHT22;4301;48.362;8.478;2023-04-25T10:36:52;7.70;1.00
8527;DHT22;4301;48.362;8.478;2023-04-25T10:39:24;7.90;1.00
8527;DHT22;4301;48.362;8.478;2023-04-25T10:41:57;7.90;1.00
8527;DHT22;4301;48.362;8.478;2023-04-25T10:44:26;7.80;1.00
8527;DHT22;4301;48.362;8.478;2023-04-25T10:46:55;8.10;1.00
8527;DHT22;4301;48.362;8.478;2023-04-25T10:49:31;8.50;1.00
8527;DHT22;4301;48.362;8.478;2023-04-25T10:52:12;8.30;1.00
8527;DHT22;4301;48.362;8.478;2023-04-25T10:54:46;8.30;1.00
8527;DHT22;4301;48.362;8.478;2023-04-25T10:57:37;8.50;1.00
8527;DHT22;4301;48.362;8.478;2023-04-25T11:00:10;7.90;1.00
8527;DHT22;4301;48.362;8.478;2023-04-25T11:02:41;8.00;1.00
8527;DHT22;4301;48.362;8.478;2023-04-25T11:05:09;7.90;1.00
8527;DHT22;4301;48.362;8.478;2023-04-25T11:07:39;8.10;1.00
8527;DHT22;4301;48.362;8.478;2023-04-25T11:10:10;8.20;1.00
8527;DHT22;4301;48.362;8.478;2023-04-25T11:12:39;8.30;5.90
8527;DHT22;4301;48.362;8.478;2023-04-25T11:15:07;7.80;1.00
8527;DHT22;4301;48.362;8.478;2023-04-25T11:17:34;7.50;1.00
8527;DHT22;4301;48.362;8.478;2023-04-25T11:20:02;7.30;1.00
8527;DHT22;4301;48.362;8.478;2023-04-25T11:22:33;6.90;1.00
8527;DHT22;4301;48.362;8.478;2023-04-25T11:25:05;6.80;4.40
8527;DHT22;4301;48.362;8.478;2023-04-25T11:27:32;6.90;40.40
8527;DHT22;4301;48.362;8.478;2023-04-25T11:30:11;7.40;1.00
8527;DHT22;4301;48.362;8.478;2023-04-25T11:32:39;7.80;1.00
8527;DHT22;4301;48.362;8.478;2023-04-25T11:35:07;7.20;1.00
8527;DHT22;4301;48.362;8.478;2023-04-25T11:37:34;7.40;1.00
8527;DHT22;4301;48.362;8.478;2023-04-25T11:40:03;7.50;1.00
8527;DHT22;4301;48.362;8.478;2023-04-25T11:42:30;7.60;1.00
8527;DHT22;4301;48.362;8.478;2023-04-25T11:44:58;7.80;1.00
8527;DHT22;4301;48.362;8.478;2023-04-25T11:47:29;7.50;1.00
8527;DHT22;4301;48.362;8.478;2023-04-25T11:49:58;7.60;1.00
8527;DHT22;4301;48.362;8.478;2023-04-25T11:52:34;7.60;1.00
8527;DHT22;4301;48.362;8.478;2023-04-25T11:55:03;7.80;1.00
8527;DHT22;4301;48.362;8.478;2023-04-25T11:57:31;7.70;1.00
8527;DHT22;4301;48.362;8.478;2023-04-25T12:00:06;8.00;28.70
8527;DHT22;4301;48.362;8.478;2023-04-25T12:02:36;8.30;1.00
8527;DHT22;4301;48.362;8.478;2023-04-25T12:05:06;8.60;1.00
8527;DHT22;4301;48.362;8.478;2023-04-25T12:07:33;8.90;1.00
8527;DHT22;4301;48.362;8.478;2023-04-25T12:10:05;9.00;1.00
8527;DHT22;4301;48.362;8.478;2023-04-25T12:12:32;8.60;1.00
8527;DHT22;4301;48.362;8.478;2023-04-25T12:15:08;9.00;1.00
8527;DHT22;4301;48.362;8.478;2023-04-25T12:17:38;9.20;99.90
8527;DHT22;4301;48.362;8.478;2023-04-25T12:20:10;9.50;99.90
8527;DHT22;4301;48.362;8.478;2023-04-25T12:22:37;9.80;99.90
8527;DHT22;4301;48.362;8.478;2023-04-25T12:25:05;10.00;1.00
8527;DHT22;4301;48.362;8.478;2023-04-25T12:27:33;9.50;1.00
8527;DHT22;4301;48.362;8.478;2023-04-25T12:30:01;10.00;99.90
8527;DHT22;4301;48.362;8.478;2023-04-25T12:32:29;10.10;1.00
8527;DHT22;4301;48.362;8.478;2023-04-25T12:34:57;10.10;1.00
8527;DHT22;4301;48.362;8.478;2023-04-25T12:37:24;10.10;99.90
8527;DHT22;4301;48.362;8.478;2023-04-25T12:39:51;9.90;99.90
8527;DHT22;4301;48.362;8.478;2023-04-25T12:42:18;10.20;99.90
8527;DHT22;4301;48.362;8.478;2023-04-25T12:44:45;11.20;99.90
8527;DHT22;4301;48.362;8.478;2023-04-25T12:47:13;11.70;99.90
8527;DHT22;4301;48.362;8.478;2023-04-25T12:49:40;11.20;1.00
8527;DHT22;4301;48.362;8.478;2023-04-25T12:52:08;10.90;1.00
8527;DHT22;4301;48.362;8.478;2023-04-25T12:54:35;10.30;1.00
8527;DHT22;4301;48.362;8.478;2023-04-25T12:57:02;10.00;99.90
8527;DHT22;4301;48.362;8.478;2023-04-25T12:59:29;9.90;99.90
8527;DHT22;4301;48.362;8.478;2023-04-25T13:01:56;9.80;1.00
8527;DHT22;4301;48.362;8.478;2023-04-25T13:04:23;9.80;99.90
8527;DHT22;4301;48.362;8.478;2023-04-25T13:06:50;9.80;1.00
8527;DHT22;4301;48.362;8.478;2023-04-25T13:09:18;10.40;99.90
8527;DHT22;4301;48.362;8.478;2023-04-25T13:11:46;11.20;1.00
8527;DHT22;4301;48.362;8.478;2023-04-25T13:14:13;11.10;99.90
8527;DHT22;4301;48.362;8.478;2023-04-25T13:16:40;11.00;1.00
8527;DHT22;4301;48.362;8.478;2023-04-25T13:19:07;11.00;1.00
8527;DHT22;4301;48.362;8.478;2023-04-25T13:21:37;11.20;99.90
8527;DHT22;4301;48.362;8.478;2023-04-25T13:24:04;11.20;1.00
8527;DHT22;4301;48.362;8.478;2023-04-25T13:26:32;10.90;13.90
8527;DHT22;4301;48.362;8.478;2023-04-25T13:28:59;10.90;1.00
8527;DHT22;4301;48.362;8.478;2023-04-25T13:31:29;10.80;99.90
8527;DHT22;4301;48.362;8.478;2023-04-25T13:33:56;10.70;99.90
8527;DHT22;4301;48.362;8.478;2023-04-25T13:36:23;10.70;99.90
8527;DHT22;4301;48.362;8.478;2023-04-25T13:38:51;10.80;99.90
8527;DHT22;4301;48.362;8.478;2023-04-25T13:41:18;10.70;99.90
8527;DHT22;4301;48.362;8.478;2023-04-25T13:43:47;10.50;1.00
8527;DHT22;4301;48.362;8.478;2023-04-25T13:46:14;10.40;99.90
8527;DHT22;4301;48.362;8.478;2023-04-25T13:48:42;10.20;1.00
8527;DHT22;4301;48.362;8.478;2023-04-25T13:51:13;10.00;99.90
8527;DHT22;4301;48.362;8.478;2023-04-25T13:53:41;9.90;99.90
8527;DHT22;4301;48.362;8.478;2023-04-25T13:56:08;9.90;99.90
8527;DHT22;4301;48.362;8.478;2023-04-25T13:58:35;10.10;99.90
8527;DHT22;4301;48.362;8.478;2023-04-25T14:01:03;10.20;1.00
8527;DHT22;4301;48.362;8.478;2023-04-25T14:03:31;10.30;1.00
8527;DHT22;4301;48.362;8.478;2023-04-25T14:05:58;10.10;99.90
8527;DHT22;4301;48.362;8.478;2023-04-25T14:08:25;9.90;64.70
8527;DHT22;4301;48.362;8.478;2023-04-25T14:10:52;9.80;1.00
8527;DHT22;4301;48.362;8.478;2023-04-25T14:13:19;9.90;1.00
8527;DHT22;4301;48.362;8.478;2023-04-25T14:15:46;9.90;1.00
8527;DHT22;4301;48.362;8.478;2023-04-25T14:18:14;9.80;99.90
8527;DHT22;4301;48.362;8.478;2023-04-25T14:20:41;10.00;4.30
8527;DHT22;4301;48.362;8.478;2023-04-25T14:23:08;10.00;99.90
8527;DHT22;4301;48.362;8.478;2023-04-25T14:25:35;10.00;99.90
8527;DHT22;4301;48.362;8.478;2023-04-25T14:28:03;9.80;1.00
8527;DHT22;4301;48.362;8.478;2023-04-25T14:30:30;9.60;1.00
8527;DHT22;4301;48.362;8.478;2023-04-25T14:32:57;9.40;1.00
8527;DHT22;4301;48.362;8.478;2023-04-25T14:35:25;9.30;11.60
8527;DHT22;4301;48.362;8.478;2023-04-25T14:37:53;9.10;1.00
8527;DHT22;4301;48.362;8.478;2023-04-25T14:40:20;8.80;99.90
8527;DHT22;4301;48.362;8.478;2023-04-25T14:42:48;8.50;1.00
8527;DHT22;4301;48.362;8.478;2023-04-25T14:45:15;8.40;1.00
8527;DHT22;4301;48.362;8.478;2023-04-25T14:47:42;8.30;1.00
8527;DHT22;4301;48.362;8.478;2023-04-25T14:50:10;8.50;1.00
8527;DHT22;4301;48.362;8.478;2023-04-25T14:52:38;9.00;1.00
8527;DHT22;4301;48.362;8.478;2023-04-25T14:55:05;9.10;1.00
8527;DHT22;4301;48.362;8.478;2023-04-25T14:57:33;9.60;1.00
8527;DHT22;4301;48.362;8.478;2023-04-25T15:00:00;10.20;1.00
8527;DHT22;4301;48.362;8.478;2023-04-25T15:02:27;10.50;99.90
8527;DHT22;4301;48.362;8.478;2023-04-25T15:04:54;10.50;99.90
8527;DHT22;4301;48.362;8.478;2023-04-25T15:07:22;10.50;5.40
8527;DHT22;4301;48.362;8.478;2023-04-25T15:09:50;10.60;39.60
8527;DHT22;4301;48.362;8.478;2023-04-25T15:12:18;10.70;60.40
8527;DHT22;4301;48.362;8.478;2023-04-25T15:14:46;11.00;1.00
8527;DHT22;4301;48.362;8.478;2023-04-25T15:17:13;11.30;1.00
8527;DHT22;4301;48.362;8.478;2023-04-25T15:19:40;11.10;1.00
8527;DHT22;4301;48.362;8.478;2023-04-25T15:22:07;11.00;99.90
8527;DHT22;4301;48.362;8.478;2023-04-25T15:24:34;10.30;99.90
8527;DHT22;4301;48.362;8.478;2023-04-25T15:27:03;9.80;94.00
8527;DHT22;4301;48.362;8.478;2023-04-25T15:29:31;9.80;99.90
8527;DHT22;4301;48.362;8.478;2023-04-25T15:31:58;9.40;99.90
8527;DHT22;4301;48.362;8.478;2023-04-25T15:34:25;9.20;1.00
8527;DHT22;4301;48.362;8.478;2023-04-25T15:36:52;9.10;1.00
8527;DHT22;4301;48.362;8.478;2023-04-25T15:39:19;8.90;85.60
8527;DHT22;4301;48.362;8.478;2023-04-25T15:41:46;8.90;99.90
8527;DHT22;4301;48.362;8.478;2023-04-25T15:44:14;8.80;1.00
8527;DHT22;4301;48.362;8.478;2023-04-25T15:46:41;9.00;99.90
8527;DHT22;4301;48.362;8.478;2023-04-25T15:49:09;9.00;1.00
8527;DHT22;4301;48.362;8.478;2023-04-25T15:51:36;9.00;1.00
8527;DHT22;4301;48.362;8.478;2023-04-25T15:54:04;9.00;1.00
8527;DHT22;4301;48.362;8.478;2023-04-25T15:56:31;8.80;1.00
8527;DHT22;4301;48.362;8.478;2023-04-25T15:58:57;8.80;99.90
8527;DHT22;4301;48.362;8.478;2023-04-25T16:01:26;8.80;1.00
8527;DHT22;4301;48.362;8.478;2023-04-25T16:03:55;8.80;99.90
8527;DHT22;4301;48.362;8.478;2023-04-25T16:06:23;8.60;1.00
8527;DHT22;4301;48.362;8.478;2023-04-25T16:08:50;8.40;1.00
8527;DHT22;4301;48.362;8.478;2023-04-25T16:11:18;8.60;1.00
8527;DHT22;4301;48.362;8.478;2023-04-25T16:13:46;8.80;1.00
8527;DHT22;4301;48.362;8.478;2023-04-25T16:16:13;9.00;99.90
8527;DHT22;4301;48.362;8.478;2023-04-25T16:18:41;9.30;58.50
8527;DHT22;4301;48.362;8.478;2023-04-25T16:21:08;9.40;99.90
8527;DHT22;4301;48.362;8.478;2023-04-25T16:23:36;9.50;1.00